Time;durP1;ratioP1;P1;durP2;ratioP2;P2;SDS_P1;SDS_P2;PMS_P1;PMS_P2;Temp;Humidity;BMP_temperature;BMP_pressure;BME280_temperature;BME280_humidity;BME280_pressure;Samples;Min_cycle;Max_cycle;Signal;HPM_P1;HPM_P2
2022/03/06 00:01:14;;;;;;;15.43;9.93;;;;;;;;;;5069460;28;20164;-57
2022/03/06 00:03:40;;;;;;;12.87;9.97;;;;;;;;;;5071612;28;20232;-57
2022/03/06 00:06:07;;;;;;;15.13;9.83;;;;;;;;;;5086294;28;20183;-57
2022/03/06 00:08:33;;;;;;;15.53;11.20;;;;;;;;;;5088928;28;20167;-57
2022/03/06 00:11:00;;;;;;;12.77;9.53;;;;;;;;;;5087443;28;20678;-57
2022/03/06 00:13:26;;;;;;;14.07;10.27;;;;;;;;;;5094791;28;20195;-57
2022/03/06 00:15:53;;;;;;;18.17;11.83;;;;;;;;;;5087418;28;20172;-59
2022/03/06 00:18:19;;;;;;;17.90;10.23;;;;;;;;;;5091942;28;20686;-57
2022/03/06 00:20:48;;;;;;;12.70;9.50;;;;;;;;;;5086778;28;20678;-58
2022/03/06 00:23:15;;;;;;;14.87;10.43;;;;;;;;;;5098960;28;20179;-59
2022/03/06 00:25:41;;;;;;;14.73;10.67;;;;;;;;;;5069892;28;20190;-59
2022/03/06 00:28:07;;;;;;;15.90;10.30;;;;;;;;;;5081962;28;20179;-58
2022/03/06 00:30:34;;;;;;;16.37;9.90;;;;;;;;;;5068763;28;20179;-58
2022/03/06 00:33:02;;;;;;;14.47;10.30;;;;;;;;;;5082352;28;20215;-57
2022/03/06 00:35:32;;;;;;;12.50;9.17;;;;;;;;;;5093410;28;20502;-59
2022/03/06 00:37:59;;;;;;;14.03;10.33;;;;;;;;;;5080168;28;20191;-58
2022/03/06 00:40:25;;;;;;;16.30;11.53;;;;;;;;;;5087161;28;20262;-59
2022/03/06 00:42:52;;;;;;;15.17;10.90;;;;;;;;;;5088278;28;20183;-57
2022/03/06 00:45:19;;;;;;;14.13;10.57;;;;;;;;;;5076531;28;20175;-59
2022/03/06 00:47:45;;;;;;;14.77;10.60;;;;;;;;;;5093222;28;20168;-60
2022/03/06 00:50:21;;;;;;;14.27;10.17;;;;;;;;;;5087314;28;20183;-57
2022/03/06 00:52:48;;;;;;;13.20;9.97;;;;;;;;;;5080139;28;20546;-58
2022/03/06 00:55:14;;;;;;;14.73;10.93;;;;;;;;;;5092122;28;20292;-59
2022/03/06 00:57:40;;;;;;;15.47;11.33;;;;;;;;;;5077826;28;20286;-59
2022/03/06 01:00:08;;;;;;;12.57;9.70;;;;;;;;;;5089915;28;20183;-58
2022/03/06 01:02:34;;;;;;;14.40;9.93;;;;;;;;;;5051766;28;20206;-58
2022/03/06 01:05:01;;;;;;;14.97;10.77;;;;;;;;;;5086697;28;20662;-58
2022/03/06 01:07:27;;;;;;;13.90;10.37;;;;;;;;;;5076998;28;20526;-58
2022/03/06 01:09:53;;;;;;;13.13;10.67;;;;;;;;;;5085398;28;20216;-58
2022/03/06 01:12:19;;;;;;;12.40;9.97;;;;;;;;;;5090333;28;20175;-58
2022/03/06 01:14:45;;;;;;;13.93;10.17;;;;;;;;;;5073688;28;20214;-58
2022/03/06 01:17:12;;;;;;;14.53;10.60;;;;;;;;;;5091587;28;20180;-57
2022/03/06 01:19:38;;;;;;;14.10;10.40;;;;;;;;;;5072685;28;20172;-57
2022/03/06 01:22:04;;;;;;;12.67;10.30;;;;;;;;;;5076056;28;20270;-57
2022/03/06 01:24:31;;;;;;;15.30;10.30;;;;;;;;;;5091564;28;20184;-58
2022/03/06 01:26:57;;;;;;;14.93;10.57;;;;;;;;;;5079522;28;20198;-57
2022/03/06 01:29:24;;;;;;;14.00;9.73;;;;;;;;;;5082553;28;20172;-57
2022/03/06 01:31:50;;;;;;;13.83;11.37;;;;;;;;;;5083306;28;20676;-58
2022/03/06 01:34:17;;;;;;;15.80;10.90;;;;;;;;;;5090683;28;20296;-58
2022/03/06 01:36:43;;;;;;;15.17;10.50;;;;;;;;;;5086858;28;20248;-57
2022/03/06 01:39:10;;;;;;;15.37;10.43;;;;;;;;;;5080624;28;20333;-58
2022/03/06 01:41:39;;;;;;;16.83;10.83;;;;;;;;;;5083263;28;20274;-57
2022/03/06 01:44:05;;;;;;;14.40;10.87;;;;;;;;;;5085381;28;20640;-58
2022/03/06 01:46:31;;;;;;;11.57;9.50;;;;;;;;;;5076477;28;20183;-58
2022/03/06 01:48:58;;;;;;;14.57;10.67;;;;;;;;;;5073786;28;20213;-58
2022/03/06 01:51:24;;;;;;;15.37;10.40;;;;;;;;;;5097591;28;20213;-57
2022/03/06 01:53:54;;;;;;;14.10;10.77;;;;;;;;;;5074454;28;20210;-57
2022/03/06 01:56:21;;;;;;;15.27;10.37;;;;;;;;;;5090875;28;20681;-58
2022/03/06 01:58:48;;;;;;;14.53;10.50;;;;;;;;;;5091393;28;20663;-57
2022/03/06 02:01:14;;;;;;;14.27;10.40;;;;;;;;;;5060958;28;20179;-57
2022/03/06 02:03:40;;;;;;;16.27;11.03;;;;;;;;;;5094940;28;20188;-57
2022/03/06 02:06:08;;;;;;;14.87;10.93;;;;;;;;;;5078821;28;20646;-57
2022/03/06 02:08:35;;;;;;;14.63;11.07;;;;;;;;;;5082599;28;20192;-57
2022/03/06 02:11:01;;;;;;;13.33;9.67;;;;;;;;;;5089866;28;20713;-58
2022/03/06 02:13:28;;;;;;;14.20;9.60;;;;;;;;;;5088222;28;20195;-57
2022/03/06 02:15:55;;;;;;;15.53;11.07;;;;;;;;;;5079080;28;20176;-57
2022/03/06 02:18:21;;;;;;;17.23;10.53;;;;;;;;;;5089989;28;20215;-57
2022/03/06 02:20:47;;;;;;;13.77;10.87;;;;;;;;;;5072734;28;20650;-57
2022/03/06 02:23:15;;;;;;;14.47;11.03;;;;;;;;;;5082965;28;20590;-58
2022/03/06 02:25:42;;;;;;;15.17;10.37;;;;;;;;;;5071868;28;20190;-57
2022/03/06 02:28:09;;;;;;;15.07;10.60;;;;;;;;;;5089692;28;20187;-57
2022/03/06 02:30:37;;;;;;;14.90;10.10;;;;;;;;;;5089451;28;20268;-57
2022/03/06 02:33:05;;;;;;;15.80;10.50;;;;;;;;;;5089781;28;20222;-57
2022/03/06 02:35:31;;;;;;;15.17;10.97;;;;;;;;;;5071736;28;20674;-57
2022/03/06 02:37:58;;;;;;;14.23;10.70;;;;;;;;;;5075782;28;20178;-57
2022/03/06 02:40:24;;;;;;;15.10;11.00;;;;;;;;;;5072862;28;20180;-57
2022/03/06 02:42:51;;;;;;;13.27;10.67;;;;;;;;;;5099801;28;20175;-57
2022/03/06 02:45:25;;;;;;;15.90;9.73;;;;;;;;;;5083081;28;20553;-57
2022/03/06 02:47:52;;;;;;;16.57;10.10;;;;;;;;;;5087050;28;20608;-57
2022/03/06 02:50:20;;;;;;;14.50;10.87;;;;;;;;;;5080376;28;20187;-57
2022/03/06 02:52:46;;;;;;;14.23;10.33;;;;;;;;;;5080135;28;20202;-57
2022/03/06 02:55:13;;;;;;;17.80;11.03;;;;;;;;;;5092183;28;20600;-57
2022/03/06 02:57:40;;;;;;;12.20;10.07;;;;;;;;;;5076438;28;20633;-58
2022/03/06 03:00:08;;;;;;;14.57;10.23;;;;;;;;;;5072149;28;20180;-58
2022/03/06 03:02:34;;;;;;;13.47;10.53;;;;;;;;;;5084429;28;20498;-57
2022/03/06 03:05:01;;;;;;;15.23;10.90;;;;;;;;;;5088786;28;20176;-57
2022/03/06 03:07:27;;;;;;;12.00;9.23;;;;;;;;;;5076157;28;20213;-58
2022/03/06 03:09:54;;;;;;;13.63;10.10;;;;;;;;;;5069988;28;20222;-57
2022/03/06 03:12:20;;;;;;;16.87;12.37;;;;;;;;;;5088006;28;20294;-57
2022/03/06 03:14:46;;;;;;;16.27;10.50;;;;;;;;;;5070860;28;20210;-57
2022/03/06 03:17:12;;;;;;;14.77;10.23;;;;;;;;;;5073928;28;20271;-57
2022/03/06 03:19:38;;;;;;;15.70;10.70;;;;;;;;;;5073138;28;20182;-58
2022/03/06 03:22:05;;;;;;;13.93;9.27;;;;;;;;;;5090335;28;20175;-57
2022/03/06 03:24:31;;;;;;;14.37;10.53;;;;;;;;;;5088688;28;20187;-57
2022/03/06 03:26:57;;;;;;;14.83;11.00;;;;;;;;;;5088622;28;20253;-57
2022/03/06 03:29:24;;;;;;;15.83;10.70;;;;;;;;;;5088750;28;20184;-57
2022/03/06 03:31:50;;;;;;;15.67;11.70;;;;;;;;;;5088265;28;20560;-57
2022/03/06 03:34:16;;;;;;;14.83;11.23;;;;;;;;;;5088483;28;20628;-57
2022/03/06 03:36:43;;;;;;;14.60;10.23;;;;;;;;;;5070229;28;20262;-58
2022/03/06 03:39:09;;;;;;;13.13;10.43;;;;;;;;;;5088671;28;20267;-57
2022/03/06 03:41:35;;;;;;;15.77;10.57;;;;;;;;;;5071331;28;20207;-57
2022/03/06 03:44:05;;;;;;;13.53;9.87;;;;;;;;;;5087135;28;20211;-57
2022/03/06 03:46:35;;;;;;;14.00;10.07;;;;;;;;;;5074077;28;20268;-57
2022/03/06 03:49:01;;;;;;;13.40;10.50;;;;;;;;;;5085821;28;20207;-57
2022/03/06 03:51:28;;;;;;;15.23;11.53;;;;;;;;;;5081634;28;20421;-57
2022/03/06 03:53:54;;;;;;;13.90;10.23;;;;;;;;;;5089120;28;20555;-57
2022/03/06 03:56:23;;;;;;;17.53;11.80;;;;;;;;;;5070264;28;20199;-57
2022/03/06 03:58:50;;;;;;;13.93;10.33;;;;;;;;;;5069090;28;20237;-57
2022/03/06 04:01:19;;;;;;;12.13;10.83;;;;;;;;;;5087066;28;20172;-57
2022/03/06 04:03:46;;;;;;;13.97;10.43;;;;;;;;;;5068993;28;20555;-59
2022/03/06 04:06:12;;;;;;;15.57;10.60;;;;;;;;;;5049131;28;20275;-58
2022/03/06 04:08:38;;;;;;;13.77;10.20;;;;;;;;;;5092762;28;20255;-58
2022/03/06 04:11:05;;;;;;;14.00;10.17;;;;;;;;;;5090133;28;20280;-58
2022/03/06 04:13:31;;;;;;;13.87;10.47;;;;;;;;;;5072776;28;20452;-58
2022/03/06 04:15:58;;;;;;;15.53;11.27;;;;;;;;;;5087727;28;20559;-58
2022/03/06 04:18:25;;;;;;;14.90;10.40;;;;;;;;;;5080234;28;20182;-58
2022/03/06 04:20:51;;;;;;;12.80;10.10;;;;;;;;;;5048861;28;20176;-58
2022/03/06 04:23:17;;;;;;;15.37;10.57;;;;;;;;;;5087356;28;20176;-56
2022/03/06 04:25:43;;;;;;;13.97;9.90;;;;;;;;;;5085215;28;20191;-57
2022/03/06 04:28:09;;;;;;;13.87;10.23;;;;;;;;;;5070874;28;20650;-57
2022/03/06 04:30:35;;;;;;;14.97;10.70;;;;;;;;;;5087415;28;20175;-57
2022/03/06 04:33:01;;;;;;;15.60;10.30;;;;;;;;;;5069067;28;20210;-57
2022/03/06 04:35:28;;;;;;;14.23;10.37;;;;;;;;;;5090261;28;20184;-57
2022/03/06 04:37:54;;;;;;;13.93;9.70;;;;;;;;;;5083384;28;20229;-57
2022/03/06 04:40:20;;;;;;;14.60;11.10;;;;;;;;;;5068612;28;20238;-56
2022/03/06 04:42:46;;;;;;;14.83;11.17;;;;;;;;;;5088426;28;20590;-57
2022/03/06 04:45:13;;;;;;;13.03;9.77;;;;;;;;;;5065526;28;20458;-57
2022/03/06 04:47:39;;;;;;;15.80;10.07;;;;;;;;;;5090316;28;20171;-57
2022/03/06 04:50:06;;;;;;;15.25;11.75;;;;;;;;;;5090498;28;20672;-57
2022/03/06 04:52:32;;;;;;;16.23;11.07;;;;;;;;;;5069096;28;20172;-57
2022/03/06 04:54:58;;;;;;;15.43;10.50;;;;;;;;;;5070439;28;20628;-57
2022/03/06 04:57:25;;;;;;;13.70;9.80;;;;;;;;;;5084512;28;20196;-57
2022/03/06 04:59:51;;;;;;;14.07;9.60;;;;;;;;;;5074167;28;20422;-56
2022/03/06 05:02:17;;;;;;;15.50;10.70;;;;;;;;;;5087188;28;20195;-56
2022/03/06 05:04:44;;;;;;;13.97;10.03;;;;;;;;;;5087065;28;20179;-57
2022/03/06 05:07:10;;;;;;;15.03;12.13;;;;;;;;;;5085357;28;20398;-57
2022/03/06 05:09:37;;;;;;;14.77;10.83;;;;;;;;;;5061306;28;20847;-57
2022/03/06 05:12:03;;;;;;;14.33;9.30;;;;;;;;;;5078667;28;20574;-57
2022/03/06 05:14:29;;;;;;;14.33;9.90;;;;;;;;;;5071967;28;20275;-57
2022/03/06 05:16:55;;;;;;;14.90;10.73;;;;;;;;;;5087735;28;20180;-57
2022/03/06 05:19:22;;;;;;;14.75;11.75;;;;;;;;;;5061434;28;20388;-57
2022/03/06 05:21:48;;;;;;;12.93;10.70;;;;;;;;;;5085729;28;20237;-57
2022/03/06 05:24:15;;;;;;;13.17;9.87;;;;;;;;;;5070884;28;20607;-57
2022/03/06 05:26:41;;;;;;;14.53;9.80;;;;;;;;;;5068583;28;20673;-57
2022/03/06 05:29:08;;;;;;;13.67;10.20;;;;;;;;;;5087309;28;20172;-57
2022/03/06 05:31:34;;;;;;;13.70;9.87;;;;;;;;;;5087154;28;20255;-57
2022/03/06 05:34:00;;;;;;;13.03;9.87;;;;;;;;;;5072728;28;20702;-56
2022/03/06 05:36:26;;;;;;;13.07;9.30;;;;;;;;;;5087197;28;20198;-57
2022/03/06 05:38:52;;;;;;;13.70;9.40;;;;;;;;;;5087484;28;20179;-57
2022/03/06 05:41:19;;;;;;;13.70;9.47;;;;;;;;;;5089570;28;20436;-57
2022/03/06 05:43:45;;;;;;;14.80;10.13;;;;;;;;;;5086956;28;20422;-57
2022/03/06 05:46:11;;;;;;;14.10;10.93;;;;;;;;;;5067728;28;20960;-57
2022/03/06 05:48:37;;;;;;;13.47;9.60;;;;;;;;;;5088871;28;20255;-57
2022/03/06 05:51:04;;;;;;;15.33;10.13;;;;;;;;;;5085432;28;20234;-57
2022/03/06 05:53:30;;;;;;;13.97;10.03;;;;;;;;;;5085010;28;20464;-57
2022/03/06 05:55:59;;;;;;;14.57;10.30;;;;;;;;;;5081800;28;20424;-57
2022/03/06 05:58:25;;;;;;;14.63;10.23;;;;;;;;;;5076627;28;20425;-57
2022/03/06 06:00:51;;;;;;;13.17;10.90;;;;;;;;;;5073514;28;20422;-57
2022/03/06 06:03:18;;;;;;;14.67;10.00;;;;;;;;;;5092117;28;20186;-57
2022/03/06 06:05:44;;;;;;;14.77;10.63;;;;;;;;;;5089495;28;20843;-57
2022/03/06 06:08:10;;;;;;;14.00;9.90;;;;;;;;;;5082964;28;20409;-57
2022/03/06 06:10:37;;;;;;;14.03;10.07;;;;;;;;;;5060053;28;21004;-57
2022/03/06 06:13:03;;;;;;;13.23;9.87;;;;;;;;;;5069980;28;20451;-56
2022/03/06 06:15:30;;;;;;;16.17;10.77;;;;;;;;;;5046653;28;20433;-57
2022/03/06 06:17:56;;;;;;;12.63;9.80;;;;;;;;;;5051654;28;20953;-57
2022/03/06 06:20:22;;;;;;;14.63;10.40;;;;;;;;;;5064989;28;20510;-56
2022/03/06 06:22:53;;;;;;;14.97;10.33;;;;;;;;;;5048309;28;20767;-57
2022/03/06 06:25:19;;;;;;;12.60;9.43;;;;;;;;;;5073299;28;20429;-57
2022/03/06 06:27:45;;;;;;;13.07;9.57;;;;;;;;;;5070250;28;20418;-57
2022/03/06 06:30:11;;;;;;;14.90;9.70;;;;;;;;;;5066082;28;20181;-57
2022/03/06 06:32:37;;;;;;;11.67;9.00;;;;;;;;;;5066914;28;21744;-57
2022/03/06 06:35:04;;;;;;;14.27;10.00;;;;;;;;;;5047418;28;20425;-57
2022/03/06 06:37:30;;;;;;;14.43;10.37;;;;;;;;;;5072762;28;20817;-57
2022/03/06 06:39:57;;;;;;;14.83;10.63;;;;;;;;;;5045791;28;20870;-57
2022/03/06 06:42:23;;;;;;;11.57;9.33;;;;;;;;;;5059894;28;20476;-57
2022/03/06 06:44:49;;;;;;;13.47;10.27;;;;;;;;;;5070023;28;20987;-57
2022/03/06 06:47:15;;;;;;;13.73;10.27;;;;;;;;;;5053952;28;21213;-57
2022/03/06 06:49:41;;;;;;;13.53;10.23;;;;;;;;;;5046142;28;20820;-56
2022/03/06 06:52:08;;;;;;;11.07;9.03;;;;;;;;;;5061750;28;20763;-57
2022/03/06 06:54:34;;;;;;;13.83;9.47;;;;;;;;;;5048659;28;20450;-56
2022/03/06 06:57:01;;;;;;;12.90;10.03;;;;;;;;;;5050364;28;20456;-58
2022/03/06 06:59:27;;;;;;;13.97;9.70;;;;;;;;;;5033887;28;20433;-57
2022/03/06 07:01:53;;;;;;;13.70;9.93;;;;;;;;;;5059176;28;20425;-57
2022/03/06 07:04:19;;;;;;;15.20;9.93;;;;;;;;;;5063723;28;20437;-57
2022/03/06 07:06:45;;;;;;;13.40;9.90;;;;;;;;;;5067420;28;20461;-57
2022/03/06 07:09:12;;;;;;;14.47;10.17;;;;;;;;;;5072054;28;20949;-57
2022/03/06 07:11:38;;;;;;;13.37;10.03;;;;;;;;;;5085359;28;20721;-57
2022/03/06 07:14:04;;;;;;;12.43;10.10;;;;;;;;;;5088958;28;20821;-57
2022/03/06 07:16:30;;;;;;;13.77;9.13;;;;;;;;;;5070626;28;20439;-57
2022/03/06 07:18:56;;;;;;;12.70;9.87;;;;;;;;;;5089394;28;20725;-57
2022/03/06 07:21:23;;;;;;;11.43;8.63;;;;;;;;;;5087803;28;20789;-57
2022/03/06 07:23:49;;;;;;;12.07;9.20;;;;;;;;;;5088808;28;20410;-57
2022/03/06 07:26:15;;;;;;;13.07;9.00;;;;;;;;;;5086675;28;20432;-57
2022/03/06 07:28:42;;;;;;;12.90;9.83;;;;;;;;;;5068984;28;20816;-57
2022/03/06 07:31:09;;;;;;;12.63;9.23;;;;;;;;;;5067809;28;20796;-57
2022/03/06 07:33:35;;;;;;;10.90;9.00;;;;;;;;;;5088166;28;20560;-57
2022/03/06 07:36:02;;;;;;;11.67;8.80;;;;;;;;;;5068509;28;20417;-57
2022/03/06 07:38:28;;;;;;;11.87;8.97;;;;;;;;;;5086540;28;20498;-57
2022/03/06 07:40:54;;;;;;;12.90;8.53;;;;;;;;;;5090636;28;20432;-58
2022/03/06 07:43:20;;;;;;;13.07;9.73;;;;;;;;;;5070020;28;20435;-58
2022/03/06 07:45:46;;;;;;;12.57;9.27;;;;;;;;;;5063743;28;20434;-58
2022/03/06 07:48:12;;;;;;;13.50;9.53;;;;;;;;;;5104687;28;20501;-57
2022/03/06 07:50:39;;;;;;;12.43;9.07;;;;;;;;;;5068612;28;20433;-57
2022/03/06 07:53:05;;;;;;;11.13;9.43;;;;;;;;;;5069049;28;20468;-58
2022/03/06 07:55:31;;;;;;;11.77;9.33;;;;;;;;;;5089492;28;20413;-57
2022/03/06 07:57:57;;;;;;;12.00;9.30;;;;;;;;;;5080831;28;20445;-58
2022/03/06 08:00:24;;;;;;;11.67;9.53;;;;;;;;;;5071363;28;20797;-57
2022/03/06 08:02:50;;;;;;;14.60;9.43;;;;;;;;;;5057625;28;20425;-58
2022/03/06 08:05:16;;;;;;;10.80;8.50;;;;;;;;;;5091069;28;20531;-58
2022/03/06 08:07:42;;;;;;;14.17;9.27;;;;;;;;;;5087986;28;20191;-57
2022/03/06 08:10:09;;;;;;;10.27;8.73;;;;;;;;;;5087475;28;20467;-57
2022/03/06 08:12:35;;;;;;;11.93;9.10;;;;;;;;;;5087684;28;20414;-57
2022/03/06 08:15:01;;;;;;;13.87;9.13;;;;;;;;;;5093144;28;20514;-57
2022/03/06 08:17:27;;;;;;;12.40;9.30;;;;;;;;;;5085086;28;20428;-57
2022/03/06 08:19:54;;;;;;;11.60;9.23;;;;;;;;;;5089055;28;21273;-57
2022/03/06 08:22:21;;;;;;;13.27;8.63;;;;;;;;;;5085754;28;20475;-58
2022/03/06 08:24:47;;;;;;;12.07;9.13;;;;;;;;;;5087303;28;20912;-57
2022/03/06 08:27:14;;;;;;;12.73;9.53;;;;;;;;;;5089926;28;20413;-58
2022/03/06 08:29:40;;;;;;;11.47;8.40;;;;;;;;;;5094345;28;20425;-57
2022/03/06 08:32:06;;;;;;;13.33;9.70;;;;;;;;;;5106842;28;20922;-58
2022/03/06 08:34:32;;;;;;;12.27;9.20;;;;;;;;;;5084675;28;20504;-57
2022/03/06 08:36:59;;;;;;;11.17;8.90;;;;;;;;;;5065763;28;20434;-58
2022/03/06 08:39:25;;;;;;;10.50;8.83;;;;;;;;;;5067330;28;20426;-58
2022/03/06 08:41:51;;;;;;;13.67;9.60;;;;;;;;;;5062154;28;20431;-57
2022/03/06 08:44:18;;;;;;;11.43;9.27;;;;;;;;;;5058789;28;20454;-57
2022/03/06 08:46:44;;;;;;;12.97;9.57;;;;;;;;;;5083057;28;20422;-58
2022/03/06 08:49:10;;;;;;;11.90;9.33;;;;;;;;;;5080121;28;20422;-57
2022/03/06 08:51:36;;;;;;;11.73;9.57;;;;;;;;;;5071039;28;20279;-57
2022/03/06 08:54:03;;;;;;;10.80;8.80;;;;;;;;;;5082651;28;20906;-57
2022/03/06 08:56:29;;;;;;;12.07;9.50;;;;;;;;;;5086273;28;20808;-57
2022/03/06 08:58:56;;;;;;;11.03;8.47;;;;;;;;;;5070915;28;20500;-57
2022/03/06 09:01:22;;;;;;;14.77;9.27;;;;;;;;;;5070901;28;20417;-58
2022/03/06 09:03:49;;;;;;;28.37;9.87;;;;;;;;;;5079432;28;20441;-57
2022/03/06 09:06:15;;;;;;;21.87;10.00;;;;;;;;;;5071082;28;20777;-57
2022/03/06 09:08:42;;;;;;;25.10;11.00;;;;;;;;;;5086738;28;20422;-57
2022/03/06 09:11:08;;;;;;;21.00;10.70;;;;;;;;;;5083251;28;20231;-57
2022/03/06 09:13:35;;;;;;;18.63;9.57;;;;;;;;;;5086187;28;20973;-57
2022/03/06 09:16:02;;;;;;;17.37;9.87;;;;;;;;;;5086830;28;20410;-57
2022/03/06 09:18:28;;;;;;;21.80;9.97;;;;;;;;;;5085448;28;20425;-57
2022/03/06 09:20:54;;;;;;;14.47;9.73;;;;;;;;;;5084404;28;20425;-56
2022/03/06 09:23:20;;;;;;;14.93;9.67;;;;;;;;;;5085881;28;20413;-57
2022/03/06 09:25:47;;;;;;;15.80;10.23;;;;;;;;;;5069120;28;20437;-57
2022/03/06 09:28:13;;;;;;;15.40;9.60;;;;;;;;;;5067953;28;20464;-57
2022/03/06 09:30:41;;;;;;;15.83;9.47;;;;;;;;;;5067736;28;20437;-57
2022/03/06 09:33:07;;;;;;;16.03;9.40;;;;;;;;;;5068511;28;20485;-57
2022/03/06 09:35:34;;;;;;;16.20;10.23;;;;;;;;;;5088812;28;20875;-56
2022/03/06 09:38:01;;;;;;;11.97;9.87;;;;;;;;;;5102432;28;20769;-57
2022/03/06 09:40:27;;;;;;;17.57;9.20;;;;;;;;;;5091382;28;20425;-57
2022/03/06 09:42:53;;;;;;;10.27;9.00;;;;;;;;;;5089437;28;20463;-56
2022/03/06 09:45:22;;;;;;;12.00;9.10;;;;;;;;;;5073938;28;20429;-57
2022/03/06 09:47:48;;;;;;;11.77;9.47;;;;;;;;;;5086923;28;20475;-56
2022/03/06 09:50:15;;;;;;;15.60;9.23;;;;;;;;;;5083920;28;20448;-57
2022/03/06 09:52:42;;;;;;;10.73;8.70;;;;;;;;;;5060175;28;20438;-56
2022/03/06 09:55:09;;;;;;;11.83;9.40;;;;;;;;;;5079983;28;20462;-56
2022/03/06 09:57:36;;;;;;;12.47;9.00;;;;;;;;;;5065193;28;20536;-56
2022/03/06 10:00:02;;;;;;;13.23;9.40;;;;;;;;;;5083939;28;20186;-57
2022/03/06 10:02:28;;;;;;;10.67;8.70;;;;;;;;;;5089660;28;20653;-57
2022/03/06 10:04:54;;;;;;;11.23;9.27;;;;;;;;;;5094180;28;20203;-57
2022/03/06 10:07:20;;;;;;;11.77;9.60;;;;;;;;;;5089098;28;20700;-57
2022/03/06 10:09:58;;;;;;;13.77;10.40;;;;;;;;;;5089844;28;20812;-57
2022/03/06 10:12:29;;;;;;;12.13;8.87;;;;;;;;;;5069570;28;20185;-57
2022/03/06 10:14:59;;;;;;;12.80;9.97;;;;;;;;;;5060117;28;20207;-57
2022/03/06 10:17:27;;;;;;;11.20;9.13;;;;;;;;;;5068921;28;20453;-57
2022/03/06 10:19:56;;;;;;;12.20;9.20;;;;;;;;;;5050187;28;20972;-57
2022/03/06 10:22:27;;;;;;;9.90;8.43;;;;;;;;;;5068748;28;20534;-57
2022/03/06 10:24:55;;;;;;;13.53;8.77;;;;;;;;;;5070142;28;20550;-57
2022/03/06 10:27:40;;;;;;;12.13;8.90;;;;;;;;;;5067714;28;20191;-57
2022/03/06 10:30:22;;;;;;;12.83;8.93;;;;;;;;;;5068463;28;20646;-57
2022/03/06 10:32:48;;;;;;;11.77;8.90;;;;;;;;;;5042846;28;20185;-57
2022/03/06 10:35:15;;;;;;;12.83;9.37;;;;;;;;;;5050037;28;20538;-57
2022/03/06 10:37:41;;;;;;;10.70;8.37;;;;;;;;;;5066786;28;20173;-57
2022/03/06 10:40:07;;;;;;;11.27;8.80;;;;;;;;;;5065090;28;20585;-57
2022/03/06 10:42:34;;;;;;;13.67;9.20;;;;;;;;;;5068864;28;20180;-57
2022/03/06 10:45:00;;;;;;;12.07;9.20;;;;;;;;;;5066209;28;20204;-57
2022/03/06 10:47:26;;;;;;;10.37;8.57;;;;;;;;;;5084085;28;20203;-57
2022/03/06 10:49:59;;;;;;;9.80;8.07;;;;;;;;;;5068392;28;20543;-57
2022/03/06 10:52:25;;;;;;;12.77;9.07;;;;;;;;;;5047834;28;20753;-56
2022/03/06 10:54:55;;;;;;;10.70;8.57;;;;;;;;;;5060085;28;20208;-56
2022/03/06 10:57:22;;;;;;;11.20;8.20;;;;;;;;;;5083492;28;20200;-57
2022/03/06 10:59:49;;;;;;;10.60;8.30;;;;;;;;;;5065858;28;20287;-57
2022/03/06 11:02:16;;;;;;;10.37;9.27;;;;;;;;;;5040779;28;20686;-56
2022/03/06 11:04:45;;;;;;;10.73;8.13;;;;;;;;;;5069608;28;20291;-57
2022/03/06 11:07:12;;;;;;;9.23;7.90;;;;;;;;;;5047672;28;20177;-56
2022/03/06 11:09:38;;;;;;;10.07;8.50;;;;;;;;;;5064316;28;20184;-57
2022/03/06 11:12:04;;;;;;;10.20;8.27;;;;;;;;;;5092522;28;20164;-57
2022/03/06 11:14:32;;;;;;;10.20;7.97;;;;;;;;;;5088270;28;20768;-57
2022/03/06 11:16:58;;;;;;;9.17;7.57;;;;;;;;;;5088100;28;20164;-56
2022/03/06 11:19:25;;;;;;;9.93;7.53;;;;;;;;;;5088187;28;20188;-56
2022/03/06 11:21:58;;;;;;;11.43;8.50;;;;;;;;;;5086370;28;20233;-56
2022/03/06 11:24:26;;;;;;;11.57;8.10;;;;;;;;;;5069055;28;20172;-57
2022/03/06 11:27:20;;;;;;;11.70;7.83;;;;;;;;;;5087614;28;20176;-56
2022/03/06 11:30:20;;;;;;;8.80;7.13;;;;;;;;;;5068942;28;20188;-57
2022/03/06 11:33:02;;;;;;;8.17;7.30;;;;;;;;;;5037261;28;20560;-56
2022/03/06 11:35:33;;;;;;;11.70;7.97;;;;;;;;;;5084326;28;20570;-57
2022/03/06 11:38:00;;;;;;;11.33;7.93;;;;;;;;;;5089110;28;20670;-57
2022/03/06 11:40:37;;;;;;;9.57;7.60;;;;;;;;;;5086701;28;20241;-57
2022/03/06 11:43:05;;;;;;;8.13;6.90;;;;;;;;;;5088187;28;20627;-57
2022/03/06 11:45:44;;;;;;;8.77;7.37;;;;;;;;;;5048586;28;20544;-58
2022/03/06 11:48:10;;;;;;;8.80;7.40;;;;;;;;;;5084814;28;20654;-56
2022/03/06 11:50:37;;;;;;;8.93;7.33;;;;;;;;;;5086821;28;20172;-57
2022/03/06 11:53:41;;;;;;;8.23;6.93;;;;;;;;;;5077835;28;20207;-57
2022/03/06 11:56:42;;;;;;;8.23;6.63;;;;;;;;;;5064083;28;20245;-57
2022/03/06 11:59:11;;;;;;;9.07;7.93;;;;;;;;;;5046408;28;20646;-57
2022/03/06 12:01:39;;;;;;;7.63;6.83;;;;;;;;;;5073839;28;20441;-57
2022/03/06 12:04:09;;;;;;;8.40;6.70;;;;;;;;;;5068911;28;20561;-57
2022/03/06 12:06:39;;;;;;;8.43;7.47;;;;;;;;;;5084703;28;20637;-57
2022/03/06 12:09:13;;;;;;;10.00;7.43;;;;;;;;;;5065745;28;20252;-57
2022/03/06 12:11:40;;;;;;;8.33;6.90;;;;;;;;;;5043404;28;20216;-57
2022/03/06 12:14:13;;;;;;;8.03;6.93;;;;;;;;;;5054670;28;20560;-57
2022/03/06 12:16:58;;;;;;;7.43;6.27;;;;;;;;;;5038132;28;20543;-57
2022/03/06 12:19:24;;;;;;;7.27;6.33;;;;;;;;;;5056180;28;20192;-57
2022/03/06 12:21:50;;;;;;;7.63;6.73;;;;;;;;;;5043045;28;20165;-57
2022/03/06 12:24:27;;;;;;;8.23;6.73;;;;;;;;;;5062249;28;20245;-57
2022/03/06 12:26:54;;;;;;;7.87;7.07;;;;;;;;;;5057145;28;20211;-57
2022/03/06 12:29:39;;;;;;;7.90;6.87;;;;;;;;;;5048975;28;20197;-57
2022/03/06 12:32:23;;;;;;;8.03;7.23;;;;;;;;;;5062016;28;20187;-57
2022/03/06 12:34:56;;;;;;;8.70;7.40;;;;;;;;;;5055822;28;20196;-57
2022/03/06 12:37:27;;;;;;;8.20;7.27;;;;;;;;;;5054662;28;20261;-57
2022/03/06 12:39:54;;;;;;;8.47;7.57;;;;;;;;;;5031803;28;20557;-57
2022/03/06 12:42:25;;;;;;;8.37;7.47;;;;;;;;;;5042951;28;20191;-57
2022/03/06 12:44:54;;;;;;;8.77;7.77;;;;;;;;;;5062721;28;20222;-57
2022/03/06 12:47:20;;;;;;;8.63;7.77;;;;;;;;;;5062768;28;20181;-57
2022/03/06 12:49:47;;;;;;;8.67;7.57;;;;;;;;;;5063016;28;20195;-57
2022/03/06 12:52:16;;;;;;;10.37;8.73;;;;;;;;;;5034027;28;20275;-57
2022/03/06 12:54:45;;;;;;;9.07;8.13;;;;;;;;;;5058784;28;20196;-57
2022/03/06 12:57:11;;;;;;;8.97;8.07;;;;;;;;;;5056684;28;20204;-57
2022/03/06 12:59:43;;;;;;;10.47;9.47;;;;;;;;;;5043754;28;20644;-57
2022/03/06 13:02:09;;;;;;;9.63;8.63;;;;;;;;;;5041598;28;20181;-57
2022/03/06 13:04:36;;;;;;;8.77;7.87;;;;;;;;;;5032398;28;20191;-57
2022/03/06 13:07:02;;;;;;;10.33;7.67;;;;;;;;;;5056730;28;20181;-57
2022/03/06 13:09:30;;;;;;;13.50;8.67;;;;;;;;;;5054827;28;20212;-59
2022/03/06 13:11:57;;;;;;;9.00;8.07;;;;;;;;;;5093678;28;20180;-57
2022/03/06 13:14:31;;;;;;;10.87;8.63;;;;;;;;;;5095184;28;20218;-57
2022/03/06 13:17:06;;;;;;;9.37;8.07;;;;;;;;;;5087802;28;20350;-57
2022/03/06 13:19:43;;;;;;;9.87;8.33;;;;;;;;;;5091577;28;20195;-57
2022/03/06 13:22:17;;;;;;;10.47;9.30;;;;;;;;;;5072332;28;20621;-56
2022/03/06 13:24:48;;;;;;;10.40;8.23;;;;;;;;;;5093119;28;20179;-57
2022/03/06 13:27:21;;;;;;;8.70;7.80;;;;;;;;;;5089270;28;20271;-57
2022/03/06 13:29:59;;;;;;;10.90;8.47;;;;;;;;;;5104540;28;20639;-57
2022/03/06 13:32:26;;;;;;;8.70;7.87;;;;;;;;;;5090367;28;20212;-57
2022/03/06 13:34:52;;;;;;;9.87;8.03;;;;;;;;;;5077920;28;20206;-57
2022/03/06 13:37:18;;;;;;;9.47;8.53;;;;;;;;;;5093137;28;20183;-57
2022/03/06 13:39:53;;;;;;;9.47;8.57;;;;;;;;;;5090921;28;20187;-57
2022/03/06 13:42:29;;;;;;;8.77;7.50;;;;;;;;;;5091152;28;20190;-57
2022/03/06 13:45:09;;;;;;;8.73;7.70;;;;;;;;;;5073593;28;20642;-57
2022/03/06 13:47:43;;;;;;;8.73;7.83;;;;;;;;;;5071554;28;20314;-57
2022/03/06 13:50:09;;;;;;;8.63;7.57;;;;;;;;;;5090503;28;20266;-57
2022/03/06 13:52:37;;;;;;;9.43;7.60;;;;;;;;;;5072510;28;20171;-57
2022/03/06 13:55:10;;;;;;;8.73;7.83;;;;;;;;;;5087344;28;20215;-57
2022/03/06 13:57:37;;;;;;;8.77;7.70;;;;;;;;;;5091008;28;20670;-57
2022/03/06 14:00:23;;;;;;;9.47;7.50;;;;;;;;;;5090186;28;20192;-57
2022/03/06 14:02:58;;;;;;;8.60;7.77;;;;;;;;;;5090623;28;20642;-57
2022/03/06 14:05:28;;;;;;;8.70;7.80;;;;;;;;;;5090076;28;20172;-57
2022/03/06 14:07:55;;;;;;;8.73;7.83;;;;;;;;;;5071947;28;20178;-57
2022/03/06 14:10:38;;;;;;;10.13;7.40;;;;;;;;;;5089168;28;20223;-57
2022/03/06 14:13:04;;;;;;;8.50;7.63;;;;;;;;;;5091097;28;20164;-57
2022/03/06 14:15:33;;;;;;;8.03;7.23;;;;;;;;;;5089508;28;20180;-57
2022/03/06 14:17:59;;;;;;;8.10;7.30;;;;;;;;;;5088909;28;20741;-57
2022/03/06 14:20:25;;;;;;;8.17;6.77;;;;;;;;;;5086369;28;20250;-57
2022/03/06 14:22:51;;;;;;;9.03;8.10;;;;;;;;;;5090006;28;20233;-57
2022/03/06 14:25:17;;;;;;;8.37;7.57;;;;;;;;;;5086655;28;20692;-57
2022/03/06 14:27:43;;;;;;;8.13;7.33;;;;;;;;;;5088123;28;20639;-57
2022/03/06 14:30:12;;;;;;;8.80;7.90;;;;;;;;;;5069811;28;20236;-57
2022/03/06 14:32:41;;;;;;;8.83;7.33;;;;;;;;;;5087941;28;20271;-57